Time;durP1;ratioP1;P1;durP2;ratioP2;P2;SDS_P1;SDS_P2;PMS_P1;PMS_P2;Temp;Humidity;BMP_temperature;BMP_pressure;BME280_temperature;BME280_humidity;BME280_pressure;Samples;Min_cycle;Max_cycle;Signal;HPM_P1;HPM_P2
2022/11/24 00:01:47;;;;;;;19.15;4.88;;;;;;;;;;5044561;28;20017;-66
2022/11/24 00:04:13;;;;;;;20.60;5.45;;;;;;;;;;5030878;28;20030;-66
2022/11/24 00:06:38;;;;;;;17.05;4.90;;;;;;;;;;5032454;28;20132;-67
2022/11/24 00:09:03;;;;;;;14.90;4.97;;;;;;;;;;5045204;28;20060;-66
2022/11/24 00:11:31;;;;;;;18.75;5.07;;;;;;;;;;5031551;28;20071;-67
2022/11/24 00:13:56;;;;;;;10.77;3.90;;;;;;;;;;5031864;28;20387;-67
2022/11/24 00:16:23;;;;;;;27.95;5.20;;;;;;;;;;5016454;28;20025;-67
2022/11/24 00:18:49;;;;;;;14.02;4.65;;;;;;;;;;5036252;28;20410;-67
2022/11/24 00:21:15;;;;;;;14.40;5.45;;;;;;;;;;5031744;28;20079;-67
2022/11/24 00:23:41;;;;;;;13.93;4.63;;;;;;;;;;5031646;28;20776;-66
2022/11/24 00:26:09;;;;;;;15.63;4.80;;;;;;;;;;5031787;28;20016;-68
2022/11/24 00:28:35;;;;;;;13.93;4.10;;;;;;;;;;5039728;28;20060;-67
2022/11/24 00:31:01;;;;;;;16.38;4.97;;;;;;;;;;5050409;28;20020;-67
2022/11/24 00:33:26;;;;;;;13.63;5.00;;;;;;;;;;5039560;28;20025;-66
2022/11/24 00:35:55;;;;;;;17.20;5.57;;;;;;;;;;5044890;28;20056;-67
2022/11/24 00:38:20;;;;;;;13.25;4.75;;;;;;;;;;5059758;28;20398;-67
2022/11/24 00:40:46;;;;;;;13.52;4.20;;;;;;;;;;5042992;28;20474;-67
2022/11/24 00:43:11;;;;;;;15.30;4.90;;;;;;;;;;5039626;28;20514;-67
2022/11/24 00:45:36;;;;;;;15.05;4.60;;;;;;;;;;5043409;28;20017;-66
2022/11/24 00:48:01;;;;;;;13.25;5.03;;;;;;;;;;5052619;28;20465;-67
2022/11/24 00:50:27;;;;;;;28.02;5.45;;;;;;;;;;5042439;28;20114;-67
2022/11/24 00:52:52;;;;;;;22.20;4.75;;;;;;;;;;5039876;28;20022;-66
2022/11/24 00:55:17;;;;;;;22.47;5.00;;;;;;;;;;5035387;28;20022;-66
2022/11/24 00:57:42;;;;;;;12.80;5.05;;;;;;;;;;5035909;28;20303;-66
2022/11/24 01:00:08;;;;;;;20.65;5.65;;;;;;;;;;5050888;28;20104;-67
2022/11/24 01:02:33;;;;;;;13.68;5.15;;;;;;;;;;5035832;28;20022;-66
2022/11/24 01:04:58;;;;;;;19.73;6.38;;;;;;;;;;5035422;28;20380;-67
2022/11/24 01:07:24;;;;;;;19.67;5.55;;;;;;;;;;5036192;28;20079;-67
2022/11/24 01:09:49;;;;;;;14.80;5.20;;;;;;;;;;5042047;28;20029;-67
2022/11/24 01:12:14;;;;;;;19.02;5.47;;;;;;;;;;5040741;28;20467;-67
2022/11/24 01:14:39;;;;;;;20.42;5.80;;;;;;;;;;5034550;28;20075;-67
2022/11/24 01:17:05;;;;;;;13.50;5.28;;;;;;;;;;5033593;28;20052;-67
2022/11/24 01:19:30;;;;;;;16.27;5.32;;;;;;;;;;5041896;28;20101;-67
2022/11/24 01:21:55;;;;;;;15.13;6.07;;;;;;;;;;5040086;28;20041;-67
2022/11/24 01:24:20;;;;;;;20.17;5.90;;;;;;;;;;5041236;28;20029;-67
2022/11/24 01:26:46;;;;;;;15.70;5.88;;;;;;;;;;5039773;28;20092;-67
2022/11/24 01:29:11;;;;;;;19.23;6.00;;;;;;;;;;5036693;28;20092;-67
2022/11/24 01:31:37;;;;;;;19.70;6.50;;;;;;;;;;5047311;28;20033;-67
2022/11/24 01:34:02;;;;;;;15.95;6.05;;;;;;;;;;5051432;28;20103;-66
2022/11/24 01:36:27;;;;;;;15.40;5.22;;;;;;;;;;5052740;28;20033;-67
2022/11/24 01:38:52;;;;;;;22.73;5.85;;;;;;;;;;5045534;28;20033;-67
2022/11/24 01:41:19;;;;;;;15.10;4.33;;;;;;;;;;5043468;28;20033;-67
2022/11/24 01:43:45;;;;;;;10.63;4.93;;;;;;;;;;5048928;28;20307;-67
2022/11/24 01:46:29;;;;;;;23.08;5.43;;;;;;;;;;5050953;28;20074;-67
2022/11/24 01:49:10;;;;;;;22.00;5.95;;;;;;;;;;5057571;28;20059;-67
2022/11/24 01:51:42;;;;;;;22.05;6.75;;;;;;;;;;5051133;28;20048;-67
2022/11/24 01:54:07;;;;;;;18.60;6.22;;;;;;;;;;5049722;28;20495;-67
2022/11/24 01:56:33;;;;;;;21.02;5.88;;;;;;;;;;5050122;28;20025;-67
2022/11/24 01:59:00;;;;;;;17.90;5.57;;;;;;;;;;5053232;28;20109;-67
2022/11/24 02:01:25;;;;;;;19.25;5.57;;;;;;;;;;5051467;28;20020;-67
2022/11/24 02:03:51;;;;;;;18.88;6.60;;;;;;;;;;5046884;28;20399;-68
2022/11/24 02:06:20;;;;;;;16.65;5.85;;;;;;;;;;5050531;28;20055;-67
2022/11/24 02:08:51;;;;;;;23.05;7.38;;;;;;;;;;5050320;28;20544;-66
2022/11/24 02:11:18;;;;;;;12.50;5.15;;;;;;;;;;5050762;28;20017;-67
2022/11/24 02:13:44;;;;;;;23.20;6.72;;;;;;;;;;5045454;28;20029;-68
2022/11/24 02:16:10;;;;;;;19.58;5.80;;;;;;;;;;5049894;28;20046;-67
2022/11/24 02:18:37;;;;;;;26.65;6.70;;;;;;;;;;5045890;28;20439;-67
2022/11/24 02:21:02;;;;;;;23.17;6.82;;;;;;;;;;5047749;28;20060;-67
2022/11/24 02:23:39;;;;;;;11.30;5.68;;;;;;;;;;5047823;28;20052;-67
2022/11/24 02:26:12;;;;;;;19.92;5.82;;;;;;;;;;5041918;28;20021;-66
2022/11/24 02:28:37;;;;;;;17.13;6.00;;;;;;;;;;5052813;28;20487;-67
2022/11/24 02:31:03;;;;;;;20.42;6.38;;;;;;;;;;5051316;28;20053;-67
2022/11/24 02:33:29;;;;;;;14.95;5.10;;;;;;;;;;5049470;28;20100;-67
2022/11/24 02:35:54;;;;;;;13.82;5.68;;;;;;;;;;5048828;28;20112;-66
2022/11/24 02:38:28;;;;;;;19.87;5.93;;;;;;;;;;5052572;28;20017;-67
2022/11/24 02:40:53;;;;;;;29.73;6.97;;;;;;;;;;5067910;28;20693;-67
2022/11/24 02:43:20;;;;;;;18.33;6.15;;;;;;;;;;5038614;28;20033;-67
2022/11/24 02:45:45;;;;;;;19.55;5.88;;;;;;;;;;5046357;28;20032;-67
2022/11/24 02:48:12;;;;;;;21.90;6.97;;;;;;;;;;5045213;28;20108;-66
2022/11/24 02:50:37;;;;;;;20.27;6.40;;;;;;;;;;5048653;28;20074;-67
2022/11/24 02:53:02;;;;;;;18.70;6.00;;;;;;;;;;5039637;28;20468;-67
2022/11/24 02:55:27;;;;;;;25.03;6.60;;;;;;;;;;5033508;28;20491;-67
2022/11/24 02:57:52;;;;;;;24.20;7.20;;;;;;;;;;5043236;28;20663;-67
2022/11/24 03:00:18;;;;;;;29.70;7.05;;;;;;;;;;5039382;28;20623;-66
2022/11/24 03:02:43;;;;;;;19.67;6.88;;;;;;;;;;5035954;28;20033;-66
2022/11/24 03:05:10;;;;;;;20.65;6.65;;;;;;;;;;5048760;28;20021;-67
2022/11/24 03:07:36;;;;;;;16.15;6.50;;;;;;;;;;5035489;28;20368;-67
2022/11/24 03:10:01;;;;;;;20.00;6.35;;;;;;;;;;5048589;28;20022;-67
2022/11/24 03:12:26;;;;;;;23.70;6.30;;;;;;;;;;5044115;28;20028;-67
2022/11/24 03:14:51;;;;;;;31.83;6.30;;;;;;;;;;5051065;28;20019;-68
2022/11/24 03:17:17;;;;;;;21.05;6.38;;;;;;;;;;5042218;28;20367;-67
2022/11/24 03:19:42;;;;;;;18.73;6.15;;;;;;;;;;5037856;28;20029;-67
2022/11/24 03:22:07;;;;;;;27.13;6.55;;;;;;;;;;5039874;28;20017;-67
2022/11/24 03:24:32;;;;;;;21.83;7.72;;;;;;;;;;5050678;28;20375;-67
2022/11/24 03:26:57;;;;;;;25.20;6.70;;;;;;;;;;5051937;28;20053;-67
2022/11/24 03:29:23;;;;;;;14.43;5.33;;;;;;;;;;5051298;28;20051;-67
2022/11/24 03:31:48;;;;;;;23.63;7.15;;;;;;;;;;5051547;28;20281;-67
2022/11/24 03:34:13;;;;;;;14.30;6.57;;;;;;;;;;5050683;28;20055;-67
2022/11/24 03:36:38;;;;;;;23.90;6.30;;;;;;;;;;5051737;28;20021;-66
2022/11/24 03:39:04;;;;;;;19.63;6.38;;;;;;;;;;5048350;28;20026;-67
2022/11/24 03:41:29;;;;;;;20.20;6.53;;;;;;;;;;5051575;28;20029;-67
2022/11/24 03:43:54;;;;;;;16.27;6.97;;;;;;;;;;5044849;28;20069;-68
2022/11/24 03:46:19;;;;;;;22.40;7.13;;;;;;;;;;5031974;28;20460;-67
2022/11/24 03:48:45;;;;;;;21.48;7.20;;;;;;;;;;5033904;28;21017;-68
2022/11/24 03:51:10;;;;;;;14.93;6.45;;;;;;;;;;5033694;28;20057;-67
2022/11/24 03:53:35;;;;;;;20.30;7.40;;;;;;;;;;5035244;28;20030;-67
2022/11/24 03:56:01;;;;;;;24.83;7.55;;;;;;;;;;5033715;28;20471;-67
2022/11/24 03:58:26;;;;;;;22.08;7.60;;;;;;;;;;5051916;28;20452;-67
2022/11/24 04:00:52;;;;;;;19.35;6.40;;;;;;;;;;5039089;28;20095;-67
2022/11/24 04:03:18;;;;;;;21.60;7.13;;;;;;;;;;5039386;28;20075;-67
2022/11/24 04:05:43;;;;;;;18.75;6.68;;;;;;;;;;5051875;28;20025;-67
2022/11/24 04:08:08;;;;;;;24.00;7.97;;;;;;;;;;5036226;28;20018;-67
2022/11/24 04:10:35;;;;;;;30.43;9.00;;;;;;;;;;5036175;28;20017;-67
2022/11/24 04:13:01;;;;;;;20.90;7.43;;;;;;;;;;5036914;28;20314;-67
2022/11/24 04:15:26;;;;;;;21.35;6.63;;;;;;;;;;5036199;28;20096;-67
2022/11/24 04:17:53;;;;;;;25.90;7.90;;;;;;;;;;5050087;28;20440;-67
2022/11/24 04:20:18;;;;;;;19.15;6.25;;;;;;;;;;5046599;28;20286;-67
2022/11/24 04:22:44;;;;;;;20.45;7.55;;;;;;;;;;5050035;28;20376;-67
2022/11/24 04:25:09;;;;;;;23.10;8.35;;;;;;;;;;5035679;28;20026;-66
2022/11/24 04:27:35;;;;;;;26.08;7.53;;;;;;;;;;5035734;28;20021;-67
2022/11/24 04:30:01;;;;;;;32.72;7.07;;;;;;;;;;5045880;28;20016;-66
2022/11/24 04:32:26;;;;;;;26.13;8.65;;;;;;;;;;5050165;28;20124;-67
2022/11/24 04:34:51;;;;;;;34.05;7.90;;;;;;;;;;5035356;28;20456;-67
2022/11/24 04:37:17;;;;;;;23.10;7.80;;;;;;;;;;5051335;28;20043;-67
2022/11/24 04:39:42;;;;;;;29.48;8.13;;;;;;;;;;5054955;28;20108;-67
2022/11/24 04:42:08;;;;;;;29.65;7.97;;;;;;;;;;5054440;28;20013;-67
2022/11/24 04:44:33;;;;;;;20.55;7.18;;;;;;;;;;5054851;28;20071;-67
2022/11/24 04:46:59;;;;;;;16.30;6.50;;;;;;;;;;5053397;28;20033;-67
2022/11/24 04:49:25;;;;;;;22.35;6.88;;;;;;;;;;5053463;28;20638;-67
2022/11/24 04:51:50;;;;;;;26.27;7.28;;;;;;;;;;5053272;28;20078;-67
2022/11/24 04:54:15;;;;;;;24.60;6.93;;;;;;;;;;5053967;28;20549;-67
2022/11/24 04:56:40;;;;;;;16.52;7.00;;;;;;;;;;5052669;28;20718;-67
2022/11/24 04:59:06;;;;;;;18.38;7.07;;;;;;;;;;5053874;28;20017;-67
2022/11/24 05:01:31;;;;;;;17.23;6.90;;;;;;;;;;5052878;28;20024;-66
2022/11/24 05:03:57;;;;;;;20.63;6.45;;;;;;;;;;5052709;28;20294;-66
2022/11/24 05:06:23;;;;;;;17.00;6.40;;;;;;;;;;5053159;28;20534;-65
2022/11/24 05:08:49;;;;;;;16.80;6.30;;;;;;;;;;5052395;28;20067;-66
2022/11/24 05:11:14;;;;;;;31.10;7.20;;;;;;;;;;5052061;28;20025;-66
2022/11/24 05:13:40;;;;;;;12.95;5.63;;;;;;;;;;5053851;28;20021;-66
2022/11/24 05:16:05;;;;;;;17.55;5.45;;;;;;;;;;5053206;28;20048;-66
2022/11/24 05:18:30;;;;;;;18.65;5.13;;;;;;;;;;5032810;28;20017;-67
2022/11/24 05:20:56;;;;;;;22.90;5.43;;;;;;;;;;5035444;28;20017;-67
2022/11/24 05:23:22;;;;;;;16.13;4.53;;;;;;;;;;5047110;28;20087;-66
2022/11/24 05:25:47;;;;;;;13.55;4.50;;;;;;;;;;5035704;28;20472;-67
2022/11/24 05:28:12;;;;;;;14.20;4.43;;;;;;;;;;5034914;28;20045;-67
2022/11/24 05:30:38;;;;;;;12.77;3.97;;;;;;;;;;5037503;28;20021;-67
2022/11/24 05:33:04;;;;;;;12.30;3.50;;;;;;;;;;5053471;28;20271;-67
2022/11/24 05:35:29;;;;;;;7.78;2.83;;;;;;;;;;5050628;28;20023;-67
2022/11/24 05:37:56;;;;;;;12.20;3.03;;;;;;;;;;5043462;28;20103;-67
2022/11/24 05:40:22;;;;;;;5.53;1.95;;;;;;;;;;5042647;28;20025;-66
2022/11/24 05:42:47;;;;;;;8.93;2.28;;;;;;;;;;5053296;28;20047;-67
2022/11/24 05:45:14;;;;;;;7.07;1.95;;;;;;;;;;5050378;28;20094;-67
2022/11/24 05:47:39;;;;;;;5.63;2.08;;;;;;;;;;5051848;28;20020;-67
2022/11/24 05:50:05;;;;;;;9.02;2.42;;;;;;;;;;5048781;28;20471;-66
2022/11/24 05:52:30;;;;;;;6.40;2.03;;;;;;;;;;5052776;28;20017;-67
2022/11/24 05:54:56;;;;;;;5.20;1.73;;;;;;;;;;5051412;28;20039;-67
2022/11/24 05:57:21;;;;;;;5.07;1.92;;;;;;;;;;5052202;28;20307;-67
2022/11/24 05:59:46;;;;;;;7.03;2.15;;;;;;;;;;5051614;28;20468;-66
2022/11/24 06:02:11;;;;;;;6.82;2.03;;;;;;;;;;5049245;28;20345;-67
2022/11/24 06:04:37;;;;;;;4.38;1.63;;;;;;;;;;5040128;28;20113;-66
2022/11/24 06:07:02;;;;;;;6.40;1.50;;;;;;;;;;5044451;28;20265;-66
2022/11/24 06:09:28;;;;;;;3.45;1.30;;;;;;;;;;5037427;28;20029;-67
2022/11/24 06:11:53;;;;;;;5.32;1.20;;;;;;;;;;5045885;28;20024;-66
2022/11/24 06:14:18;;;;;;;4.35;1.30;;;;;;;;;;5049453;28;20104;-67
2022/11/24 06:16:43;;;;;;;4.95;1.60;;;;;;;;;;5044310;28;20056;-67
2022/11/24 06:19:09;;;;;;;4.90;1.35;;;;;;;;;;5039452;28;20018;-67
2022/11/24 06:21:35;;;;;;;4.50;1.83;;;;;;;;;;5045357;28;20017;-67
2022/11/24 06:24:01;;;;;;;6.72;1.83;;;;;;;;;;5042911;28;20498;-66
2022/11/24 06:26:26;;;;;;;6.43;1.52;;;;;;;;;;5048163;28;20021;-67
2022/11/24 06:28:51;;;;;;;6.30;1.50;;;;;;;;;;5043193;28;20017;-67
2022/11/24 06:31:17;;;;;;;6.65;1.95;;;;;;;;;;5040683;28;20102;-67
2022/11/24 06:33:42;;;;;;;4.70;1.88;;;;;;;;;;5034142;28;20840;-66
2022/11/24 06:36:10;;;;;;;4.43;1.42;;;;;;;;;;5038652;28;20433;-67
2022/11/24 06:38:36;;;;;;;6.07;1.35;;;;;;;;;;5038617;28;20456;-67
2022/11/24 06:41:02;;;;;;;5.37;1.67;;;;;;;;;;5044753;28;20021;-66
2022/11/24 06:43:28;;;;;;;3.92;1.27;;;;;;;;;;5037561;28;20333;-68
2022/11/24 06:45:53;;;;;;;6.05;2.28;;;;;;;;;;5035386;28;20080;-67
2022/11/24 06:48:18;;;;;;;5.72;2.25;;;;;;;;;;5038653;28;20017;-67
2022/11/24 06:50:44;;;;;;;7.97;2.10;;;;;;;;;;5042758;28;20474;-67
2022/11/24 06:53:11;;;;;;;14.90;1.90;;;;;;;;;;5041027;28;20737;-67
2022/11/24 06:55:36;;;;;;;6.13;2.60;;;;;;;;;;5042957;28;20344;-68
2022/11/24 06:58:01;;;;;;;7.43;2.47;;;;;;;;;;5040801;28;20506;-67
2022/11/24 07:00:28;;;;;;;9.98;2.70;;;;;;;;;;5042056;28;20525;-67
2022/11/24 07:02:53;;;;;;;6.20;2.17;;;;;;;;;;5039486;28;20035;-67
2022/11/24 07:05:18;;;;;;;8.27;2.60;;;;;;;;;;5033772;28;20018;-67
2022/11/24 07:07:43;;;;;;;8.60;2.73;;;;;;;;;;5033533;28;20033;-67
2022/11/24 07:10:09;;;;;;;8.40;2.47;;;;;;;;;;5032312;28;20306;-67
2022/11/24 07:12:34;;;;;;;11.98;3.53;;;;;;;;;;5046879;28;20020;-67
2022/11/24 07:14:59;;;;;;;10.50;4.13;;;;;;;;;;5051811;28;20547;-66
2022/11/24 07:17:24;;;;;;;11.98;5.05;;;;;;;;;;5051834;28;20031;-67
2022/11/24 07:19:49;;;;;;;13.43;3.37;;;;;;;;;;5052328;28;20017;-67
2022/11/24 07:22:15;;;;;;;10.07;3.57;;;;;;;;;;5051404;28;20324;-67
2022/11/24 07:24:40;;;;;;;14.37;3.90;;;;;;;;;;5042924;28;20271;-67
2022/11/24 07:27:05;;;;;;;12.53;3.63;;;;;;;;;;5035302;28;20356;-68
2022/11/24 07:29:30;;;;;;;17.40;4.32;;;;;;;;;;5036095;28;20300;-67
2022/11/24 07:31:56;;;;;;;15.75;4.00;;;;;;;;;;5046660;28;20017;-68
2022/11/24 07:34:21;;;;;;;10.65;3.30;;;;;;;;;;5033649;28;20029;-68
2022/11/24 07:36:46;;;;;;;10.65;3.42;;;;;;;;;;5032238;28;20456;-67
2022/11/24 07:39:12;;;;;;;15.27;3.53;;;;;;;;;;5051004;28;20032;-68
2022/11/24 07:41:37;;;;;;;10.38;3.92;;;;;;;;;;5048979;28;20021;-68
2022/11/24 07:44:02;;;;;;;11.13;3.60;;;;;;;;;;5030584;28;20041;-68
2022/11/24 07:46:27;;;;;;;14.55;4.20;;;;;;;;;;5053541;28;20463;-67
2022/11/24 07:48:53;;;;;;;10.45;3.72;;;;;;;;;;5032558;28;20029;-68
2022/11/24 07:51:18;;;;;;;13.45;4.40;;;;;;;;;;5025098;28;20017;-68
2022/11/24 07:53:44;;;;;;;15.10;5.05;;;;;;;;;;5049016;28;20105;-68
2022/11/24 07:56:09;;;;;;;17.23;4.75;;;;;;;;;;5041778;28;20017;-68
2022/11/24 07:58:35;;;;;;;22.50;4.60;;;;;;;;;;5043453;28;20387;-68
2022/11/24 08:01:14;;;;;;;15.32;4.40;;;;;;;;;;5054889;28;20094;-68
2022/11/24 08:03:40;;;;;;;10.02;4.30;;;;;;;;;;5055372;28;20067;-67
2022/11/24 08:06:05;;;;;;;12.50;3.72;;;;;;;;;;5054500;28;20037;-68
2022/11/24 08:08:34;;;;;;;9.45;3.42;;;;;;;;;;5055511;28;20049;-68
2022/11/24 08:11:03;;;;;;;13.35;4.57;;;;;;;;;;5054351;28;20028;-68
2022/11/24 08:13:28;;;;;;;15.77;4.53;;;;;;;;;;5054719;28;20104;-67
2022/11/24 08:15:53;;;;;;;14.80;4.55;;;;;;;;;;5053697;28;20096;-67
2022/11/24 08:18:18;;;;;;;11.95;4.22;;;;;;;;;;5054538;28;20017;-67
2022/11/24 08:20:43;;;;;;;13.07;4.63;;;;;;;;;;5053393;28;20021;-67
2022/11/24 08:23:09;;;;;;;9.63;4.22;;;;;;;;;;5054308;28;20341;-67
2022/11/24 08:25:35;;;;;;;10.63;4.15;;;;;;;;;;5053010;28;20037;-67
2022/11/24 08:28:01;;;;;;;16.52;4.90;;;;;;;;;;5054796;28;20036;-67
2022/11/24 08:30:26;;;;;;;9.65;3.88;;;;;;;;;;5053228;28;20368;-67
2022/11/24 08:32:52;;;;;;;16.60;4.15;;;;;;;;;;5055222;28;20426;-67
2022/11/24 08:35:17;;;;;;;13.77;4.32;;;;;;;;;;5040173;28;20048;-67
2022/11/24 08:37:42;;;;;;;11.45;3.50;;;;;;;;;;5035289;28;20064;-67
2022/11/24 08:40:08;;;;;;;17.70;3.50;;;;;;;;;;5037616;28;20017;-67
2022/11/24 08:42:33;;;;;;;10.25;3.63;;;;;;;;;;5054938;28;20043;-67
2022/11/24 08:44:58;;;;;;;9.52;3.67;;;;;;;;;;5054339;28;20378;-66
2022/11/24 08:47:24;;;;;;;12.38;3.83;;;;;;;;;;5053034;28;20029;-66
2022/11/24 08:49:49;;;;;;;11.80;4.00;;;;;;;;;;5054236;28;20017;-67
2022/11/24 08:52:14;;;;;;;10.13;3.85;;;;;;;;;;5044593;28;20028;-67
2022/11/24 08:54:40;;;;;;;13.73;4.20;;;;;;;;;;5037489;28;20084;-67
2022/11/24 08:57:05;;;;;;;18.13;4.80;;;;;;;;;;5055284;28;20017;-67
2022/11/24 08:59:30;;;;;;;10.52;3.45;;;;;;;;;;5054148;28;20017;-67
2022/11/24 09:01:55;;;;;;;13.02;3.78;;;;;;;;;;5043899;28;20030;-67
2022/11/24 09:04:20;;;;;;;14.15;4.35;;;;;;;;;;5007259;28;20128;-67
2022/11/24 09:06:46;;;;;;;8.40;3.50;;;;;;;;;;5012042;28;20013;-67
2022/11/24 09:09:11;;;;;;;16.45;4.80;;;;;;;;;;5007164;28;20925;-66
2022/11/24 09:11:37;;;;;;;12.25;3.55;;;;;;;;;;5011352;28;20013;-66
2022/11/24 09:14:02;;;;;;;11.90;3.95;;;;;;;;;;5011758;28;20468;-66
2022/11/24 09:16:28;;;;;;;12.27;4.07;;;;;;;;;;5011694;28;20119;-67
2022/11/24 09:18:55;;;;;;;12.32;3.75;;;;;;;;;;5013115;28;20020;-67
2022/11/24 09:21:20;;;;;;;9.38;3.45;;;;;;;;;;5012023;28;20051;-68
2022/11/24 09:23:49;;;;;;;8.32;3.42;;;;;;;;;;5010906;28;20021;-68
2022/11/24 09:26:16;;;;;;;13.00;4.60;;;;;;;;;;5015586;28;20028;-68
2022/11/24 09:28:41;;;;;;;7.75;3.05;;;;;;;;;;5015275;28;20031;-71
2022/11/24 09:31:08;;;;;;;8.63;4.10;;;;;;;;;;5015735;28;20021;-67
2022/11/24 09:33:34;;;;;;;11.18;3.60;;;;;;;;;;5009583;28;20021;-67
2022/11/24 09:35:59;;;;;;;16.77;3.63;;;;;;;;;;5013063;28;20017;-68
2022/11/24 09:38:25;;;;;;;14.15;4.38;;;;;;;;;;5004607;28;21043;-69
2022/11/24 09:40:51;;;;;;;16.90;4.35;;;;;;;;;;5014811;28;20017;-68
2022/11/24 09:43:26;;;;;;;13.15;4.00;;;;;;;;;;5013862;28;20032;-68
2022/11/24 09:46:04;;;;;;;12.38;4.50;;;;;;;;;;5013649;28;20021;-67
2022/11/24 09:48:32;;;;;;;10.77;3.45;;;;;;;;;;5014507;28;20025;-67
2022/11/24 09:51:03;;;;;;;12.00;4.22;;;;;;;;;;5020562;28;20025;-70
2022/11/24 09:53:29;;;;;;;13.20;3.95;;;;;;;;;;5018826;28;20258;-70
2022/11/24 09:55:55;;;;;;;16.80;5.28;;;;;;;;;;5014530;28;20975;-68
2022/11/24 09:58:40;;;;;;;11.15;5.20;;;;;;;;;;5015892;28;20029;-68
2022/11/24 10:01:15;;;;;;;11.65;4.60;;;;;;;;;;5017080;28;20123;-67
2022/11/24 10:03:44;;;;;;;13.10;4.13;;;;;;;;;;5002979;28;20890;-66
2022/11/24 10:06:20;;;;;;;10.95;3.65;;;;;;;;;;5010396;28;20963;-68
2022/11/24 10:09:04;;;;;;;11.23;2.97;;;;;;;;;;5007231;28;20827;-67
2022/11/24 10:11:42;;;;;;;20.33;4.40;;;;;;;;;;5016445;28;20039;-67
2022/11/24 10:14:07;;;;;;;10.27;3.75;;;;;;;;;;5006145;28;20018;-68
2022/11/24 10:16:48;;;;;;;13.32;4.55;;;;;;;;;;5026467;28;20040;-67
2022/11/24 10:19:28;;;;;;;11.15;3.80;;;;;;;;;;5034916;28;20388;-68
2022/11/24 10:22:01;;;;;;;11.32;3.50;;;;;;;;;;5035496;28;20025;-68
2022/11/24 10:24:35;;;;;;;15.38;3.58;;;;;;;;;;5037478;28;20025;-67
2022/11/24 10:27:02;;;;;;;10.45;4.10;;;;;;;;;;5041251;28;20056;-67
2022/11/24 10:29:38;;;;;;;13.77;3.40;;;;;;;;;;5048405;28;20057;-67
2022/11/24 10:32:06;;;;;;;10.13;3.80;;;;;;;;;;5043953;28;20036;-66
2022/11/24 10:34:33;;;;;;;15.65;4.55;;;;;;;;;;5035949;28;20030;-67
2022/11/24 10:37:11;;;;;;;10.48;4.03;;;;;;;;;;5034372;28;20021;-67
2022/11/24 10:39:42;;;;;;;17.73;4.13;;;;;;;;;;5034481;28;20067;-67
2022/11/24 10:42:13;;;;;;;8.48;4.20;;;;;;;;;;5052100;28;20103;-67
2022/11/24 10:44:40;;;;;;;9.15;4.05;;;;;;;;;;5012376;28;20034;-67
2022/11/24 10:47:15;;;;;;;10.57;4.10;;;;;;;;;;5011972;28;20020;-67
2022/11/24 10:49:43;;;;;;;11.35;4.18;;;;;;;;;;5011341;28;20017;-67
2022/11/24 10:52:13;;;;;;;13.07;4.45;;;;;;;;;;5038638;28;20051;-68
2022/11/24 10:54:58;;;;;;;13.55;4.13;;;;;;;;;;5049964;28;20021;-68
2022/11/24 10:57:23;;;;;;;;;;;;;;;;;;5048962;28;20021;-68
2022/11/24 10:59:48;;;;;;;8.73;3.72;;;;;;;;;;5037492;28;19967;-68
2022/11/24 11:02:27;;;;;;;16.13;3.97;;;;;;;;;;5053665;28;20063;-68
2022/11/24 11:04:53;;;;;;;8.43;3.25;;;;;;;;;;5038228;28;20271;-68
2022/11/24 11:07:19;;;;;;;9.75;3.55;;;;;;;;;;5036990;28;20018;-67
2022/11/24 11:09:45;;;;;;;12.50;3.92;;;;;;;;;;5032676;28;20041;-68
2022/11/24 11:12:18;;;;;;;14.60;4.55;;;;;;;;;;5034561;28;20028;-67
2022/11/24 11:14:46;;;;;;;16.38;8.35;;;;;;;;;;5038520;28;20032;-67
2022/11/24 11:17:43;;;;;;;11.10;4.38;;;;;;;;;;5034051;28;20526;-67
2022/11/24 11:20:21;;;;;;;14.48;4.35;;;;;;;;;;5005829;28;20071;-69
2022/11/24 11:22:48;;;;;;;14.68;5.43;;;;;;;;;;5046807;28;20029;-68
2022/11/24 11:25:13;;;;;;;12.75;4.65;;;;;;;;;;5044081;28;20095;-68
2022/11/24 11:27:39;;;;;;;14.10;4.23;;;;;;;;;;5035268;28;20437;-68
2022/11/24 11:30:30;;;;;;;7.80;3.78;;;;;;;;;;5042038;28;20282;-68
2022/11/24 11:32:59;;;;;;;10.70;3.55;;;;;;;;;;5031086;28;20026;-67
2022/11/24 11:35:26;;;;;;;13.35;4.85;;;;;;;;;;5031539;28;20033;-68
2022/11/24 11:37:57;;;;;;;13.50;3.95;;;;;;;;;;5039380;28;20325;-69
2022/11/24 11:40:26;;;;;;;10.77;4.45;;;;;;;;;;5039734;28;20009;-68
2022/11/24 11:43:06;;;;;;;11.93;5.00;;;;;;;;;;5050890;28;20029;-71
2022/11/24 11:45:36;;;;;;;12.23;4.43;;;;;;;;;;5036472;28;20028;-69
2022/11/24 11:48:04;;;;;;;14.48;5.38;;;;;;;;;;5036912;28;20032;-68
2022/11/24 11:50:49;;;;;;;11.90;4.22;;;;;;;;;;5033955;28;20025;-68
2022/11/24 11:53:34;;;;;;;13.93;4.10;;;;;;;;;;5034093;28;20130;-68
2022/11/24 11:56:09;;;;;;;20.80;4.70;;;;;;;;;;5027736;28;20958;-67
2022/11/24 11:58:52;;;;;;;17.33;5.57;;;;;;;;;;5033352;28;20042;-68
2022/11/24 12:01:26;;;;;;;21.73;5.75;;;;;;;;;;5032635;28;20049;-68
2022/11/24 12:03:51;;;;;;;;;;;;;;;;;;5033988;28;20022;-67
2022/11/24 12:06:35;;;;;;;10.43;3.72;;;;;;;;;;5012935;28;19912;-69
2022/11/24 12:09:06;;;;;;;17.67;4.37;;;;;;;;;;5013445;28;20021;-68
2022/11/24 12:11:31;;;;;;;12.65;5.05;;;;;;;;;;5047934;28;20021;-68
2022/11/24 12:14:29;;;;;;;26.80;5.60;;;;;;;;;;5050522;28;20033;-68
2022/11/24 12:16:54;;;;;;;10.25;4.35;;;;;;;;;;5006600;28;20123;-68
2022/11/24 12:19:29;;;;;;;9.53;4.50;;;;;;;;;;5051004;28;20424;-71
2022/11/24 12:22:01;;;;;;;16.25;5.07;;;;;;;;;;5050705;28;20322;-68
2022/11/24 12:24:36;;;;;;;13.40;5.22;;;;;;;;;;5051516;28;20461;-68
2022/11/24 12:27:12;;;;;;;13.93;5.13;;;;;;;;;;5050859;28;20032;-68
2022/11/24 12:29:37;;;;;;;18.42;5.65;;;;;;;;;;5054815;28;20025;-68
2022/11/24 12:32:02;;;;;;;11.40;4.60;;;;;;;;;;5049120;28;20113;-68
2022/11/24 12:34:30;;;;;;;11.83;4.13;;;;;;;;;;5042867;28;20471;-69
2022/11/24 12:37:14;;;;;;;19.17;4.10;;;;;;;;;;5053665;28;20271;-68
2022/11/24 12:39:39;;;;;;;15.40;4.60;;;;;;;;;;5054811;28;20017;-68
2022/11/24 12:42:14;;;;;;;10.77;3.83;;;;;;;;;;5048710;28;20505;-68
2022/11/24 12:44:39;;;;;;;;;;;;;;;;;;5035490;28;20053;-68
2022/11/24 12:47:14;;;;;;;11.05;4.00;;;;;;;;;;5052526;28;19959;-69
2022/11/24 12:50:01;;;;;;;8.95;3.88;;;;;;;;;;5053896;28;20040;-68
2022/11/24 12:52:30;;;;;;;12.38;4.20;;;;;;;;;;5048275;28;20136;-69
2022/11/24 12:54:55;;;;;;;13.80;4.35;;;;;;;;;;5053836;28;20039;-68
2022/11/24 12:57:35;;;;;;;13.00;4.18;;;;;;;;;;5043276;28;20041;-68
2022/11/24 13:00:04;;;;;;;15.05;4.53;;;;;;;;;;5053916;28;20017;-68
2022/11/24 13:02:49;;;;;;;10.57;4.32;;;;;;;;;;5041275;28;20017;-69
2022/11/24 13:05:23;;;;;;;9.82;4.15;;;;;;;;;;5035470;28;20021;-69
2022/11/24 13:07:54;;;;;;;13.88;4.00;;;;;;;;;;5049031;28;20044;-68
2022/11/24 13:10:25;;;;;;;12.30;4.65;;;;;;;;;;5036023;28;20025;-68
2022/11/24 13:12:56;;;;;;;13.35;4.45;;;;;;;;;;5041114;28;20655;-70
2022/11/24 13:15:22;;;;;;;15.73;3.85;;;;;;;;;;5041330;28;20407;-69
2022/11/24 13:17:48;;;;;;;11.82;4.45;;;;;;;;;;5037489;28;20096;-68
2022/11/24 13:20:15;;;;;;;13.77;4.22;;;;;;;;;;5035955;28;20376;-69
2022/11/24 13:22:46;;;;;;;19.55;4.47;;;;;;;;;;5035626;28;20045;-69
2022/11/24 13:25:14;;;;;;;7.15;3.20;;;;;;;;;;5037116;28;20033;-69
2022/11/24 13:27:41;;;;;;;8.55;3.50;;;;;;;;;;5035683;28;20029;-69
2022/11/24 13:30:25;;;;;;;11.18;3.80;;;;;;;;;;5037063;28;20446;-69
2022/11/24 13:32:58;;;;;;;11.00;3.72;;;;;;;;;;5034134;28;20024;-68
2022/11/24 13:35:23;;;;;;;13.05;4.53;;;;;;;;;;5047034;28;20328;-68
2022/11/24 13:37:50;;;;;;;15.17;4.70;;;;;;;;;;5033186;28;20013;-68
2022/11/24 13:40:16;;;;;;;10.23;3.63;;;;;;;;;;5037011;28;20268;-69
2022/11/24 13:42:54;;;;;;;20.40;4.10;;;;;;;;;;5053590;28;20498;-68
2022/11/24 13:45:38;;;;;;;24.42;5.18;;;;;;;;;;5048318;28;20384;-68
2022/11/24 13:48:19;;;;;;;13.75;4.60;;;;;;;;;;5036169;28;20025;-69
2022/11/24 13:50:53;;;;;;;14.15;4.25;;;;;;;;;;5034938;28;20037;-69
2022/11/24 13:53:21;;;;;;;10.68;4.15;;;;;;;;;;5036100;28;20096;-70
2022/11/24 13:55:57;;;;;;;13.48;4.95;;;;;;;;;;5034803;28;20052;-69
2022/11/24 13:58:28;;;;;;;17.02;4.78;;;;;;;;;;5034834;28;20052;-68
2022/11/24 14:01:01;;;;;;;12.52;4.05;;;;;;;;;;5035347;28;20059;-69
2022/11/24 14:03:45;;;;;;;10.00;3.95;;;;;;;;;;5032792;28;20396;-69
2022/11/24 14:06:20;;;;;;;10.38;4.15;;;;;;;;;;5049508;28;20464;-70
2022/11/24 14:08:46;;;;;;;20.13;4.40;;;;;;;;;;5052886;28;20036;-69
2022/11/24 14:11:13;;;;;;;17.52;4.63;;;;;;;;;;5047609;28;20023;-69
2022/11/24 14:13:38;;;;;;;13.57;4.22;;;;;;;;;;5042140;28;20013;-69
2022/11/24 14:16:22;;;;;;;12.00;4.43;;;;;;;;;;5034667;28;20112;-69
2022/11/24 14:18:49;;;;;;;15.00;4.43;;;;;;;;;;5034524;28;20036;-69
2022/11/24 14:21:23;;;;;;;14.18;4.65;;;;;;;;;;5046376;28;20303;-68
2022/11/24 14:23:51;;;;;;;;;;;;;;;;;;5035182;28;20053;-69
2022/11/24 14:26:34;;;;;;;9.57;3.70;;;;;;;;;;5033696;28;19950;-69
2022/11/24 14:29:05;;;;;;;12.50;4.18;;;;;;;;;;5020582;28;20039;-68
2022/11/24 14:31:31;;;;;;;11.75;4.10;;;;;;;;;;5000125;28;21009;-69
2022/11/24 14:34:11;;;;;;;10.70;3.92;;;;;;;;;;5001522;28;20053;-69
2022/11/24 14:36:40;;;;;;;12.15;3.88;;;;;;;;;;5007576;28;20882;-69
2022/11/24 14:39:05;;;;;;;11.20;4.15;;;;;;;;;;5008309;28;20017;-69